KCDJ

Chillicothe Agri-Science Center Airport

Chillicothe, Missouri, USA
METAR KCDJ 180752Z AUTO 21004KT 07/06 A3001 RMK AO1 SLP169 T00670056
Observed Flight Rules
Dec-18 @ 07:52 UTC (an hour ago)
Wind
210° at 4 knots
Temperatures Readings
Current 7°C / 45°F
Dewpoint 6°C / 43°F
Humidity 93%
Altimeter 30.01" Hg
Pressure 1016.9 hPa
Elevation 234
METAR KCDJ 180752Z AUTO 21004KT 07/06 A3001 RMK AO1 SLP169 T00670056
Observed Flight Rules
Dec-18 @ 07:52 UTC
(an hour ago)
Wind
210° at 4 knots
Temperature Dewpoint
7°C / 45°F 6°C / 43°F
Humidity Altimeter Pressure
93% 30.01" Hg 1016.9 hPa